createdAt,value
2023-01-07T00:01:59.938Z,100.00
2023-01-07T00:04:27.366Z,100.00
2023-01-07T00:06:55.063Z,100.00
2023-01-07T00:09:22.885Z,100.00
2023-01-07T00:11:50.574Z,100.00
2023-01-07T00:14:18.608Z,100.00
2023-01-07T00:16:46.455Z,100.00
2023-01-07T00:19:15.331Z,100.00
2023-01-07T00:21:42.901Z,100.00
2023-01-07T00:24:11.374Z,100.00
2023-01-07T00:26:39.772Z,100.00
2023-01-07T00:29:07.959Z,100.00
2023-01-07T00:31:36.843Z,100.00
2023-01-07T00:34:04.207Z,100.00
2023-01-07T00:36:33.083Z,100.00
2023-01-07T00:39:02.866Z,100.00
2023-01-07T00:41:30.411Z,100.00
2023-01-07T00:43:57.816Z,100.00
2023-01-07T00:46:26.017Z,100.00
2023-01-07T00:48:53.372Z,100.00
2023-01-07T00:51:21.294Z,100.00
2023-01-07T00:53:48.900Z,100.00
2023-01-07T00:56:17.831Z,100.00
2023-01-07T00:58:46.102Z,100.00
2023-01-07T01:01:13.829Z,100.00
2023-01-07T01:03:41.530Z,100.00
2023-01-07T01:06:13.674Z,100.00
2023-01-07T01:08:42.909Z,100.00
2023-01-07T01:11:11.906Z,100.00
2023-01-07T01:13:39.412Z,100.00
2023-01-07T01:16:08.104Z,100.00
2023-01-07T01:18:36.269Z,100.00
2023-01-07T01:21:05.240Z,100.00
2023-01-07T01:23:32.530Z,100.00
2023-01-07T01:26:04.049Z,100.00
2023-01-07T01:28:31.628Z,100.00
2023-01-07T01:30:59.472Z,100.00
2023-01-07T01:33:31.660Z,100.00
2023-01-07T01:35:59.094Z,100.00
2023-01-07T01:38:26.839Z,100.00
2023-01-07T01:40:54.201Z,100.00
2023-01-07T01:43:30.977Z,100.00
2023-01-07T01:46:09.076Z,100.00
2023-01-07T01:48:38.589Z,100.00
2023-01-07T01:51:07.220Z,100.00
2023-01-07T01:53:35.875Z,100.00
2023-01-07T01:56:07.940Z,100.00
2023-01-07T01:58:37.679Z,100.00
2023-01-07T02:01:05.925Z,100.00
2023-01-07T02:03:34.560Z,100.00
2023-01-07T02:06:02.679Z,100.00
2023-01-07T02:08:30.685Z,100.00
2023-01-07T02:11:19.770Z,100.00
2023-01-07T02:13:47.713Z,100.00
2023-01-07T02:16:27.526Z,100.00
2023-01-07T02:19:15.349Z,100.00
2023-01-07T02:22:01.518Z,100.00
2023-01-07T02:24:47.636Z,100.00
2023-01-07T02:27:15.195Z,100.00
2023-01-07T02:29:46.279Z,100.00
2023-01-07T02:32:20.555Z,100.00
2023-01-07T02:34:47.913Z,100.00
2023-01-07T02:37:27.761Z,100.00
2023-01-07T02:39:58.029Z,100.00
2023-01-07T02:42:31.766Z,100.00
2023-01-07T02:45:11.777Z,100.00
2023-01-07T02:47:43.769Z,100.00
2023-01-07T02:50:11.153Z,100.00
2023-01-07T02:52:38.572Z,100.00
2023-01-07T02:55:12.424Z,100.00
2023-01-07T02:57:49.224Z,100.00
2023-01-07T03:00:35.808Z,100.00
2023-01-07T03:03:03.756Z,100.00
2023-01-07T03:05:40.022Z,100.00
2023-01-07T03:08:07.782Z,100.00
2023-01-07T03:10:37.982Z,100.00
2023-01-07T03:13:15.925Z,100.00
2023-01-07T03:15:43.305Z,100.00
2023-01-07T03:18:14.996Z,100.00
2023-01-07T03:20:44.429Z,100.00
2023-01-07T03:23:14.403Z,100.00
2023-01-07T03:25:46.580Z,100.00
2023-01-07T03:28:17.312Z,100.00
2023-01-07T03:30:45.775Z,100.00
2023-01-07T03:33:39.777Z,100.00
2023-01-07T03:36:09.066Z,100.00
2023-01-07T03:38:37.515Z,100.00
2023-01-07T03:41:05.500Z,100.00
2023-01-07T03:43:32.853Z,100.00
2023-01-07T03:46:00.972Z,100.00
2023-01-07T03:48:29.130Z,100.00
2023-01-07T03:50:56.704Z,100.00
2023-01-07T03:53:24.214Z,100.00
2023-01-07T03:55:52.753Z,100.00
2023-01-07T03:58:20.088Z,100.00
2023-01-07T04:00:47.514Z,100.00
2023-01-07T04:03:18.988Z,100.00
2023-01-07T04:05:47.893Z,100.00
2023-01-07T04:08:15.982Z,100.00
2023-01-07T04:10:43.450Z,100.00
2023-01-07T04:13:12.745Z,100.00
2023-01-07T04:15:42.620Z,100.00
2023-01-07T04:18:10.465Z,100.00
2023-01-07T04:20:38.223Z,100.00
2023-01-07T04:23:06.010Z,100.00
2023-01-07T04:25:33.387Z,100.00
2023-01-07T04:28:04.074Z,100.00
2023-01-07T04:30:33.325Z,100.00
2023-01-07T04:33:00.891Z,100.00
2023-01-07T04:35:29.019Z,100.00
2023-01-07T04:37:56.835Z,100.00
2023-01-07T04:40:24.392Z,100.00
2023-01-07T04:42:52.752Z,100.00
2023-01-07T04:45:20.723Z,100.00
2023-01-07T04:47:48.317Z,100.00
2023-01-07T04:50:15.883Z,100.00
2023-01-07T04:52:43.354Z,100.00
2023-01-07T04:55:11.307Z,100.00
2023-01-07T04:57:39.065Z,100.00
2023-01-07T05:00:07.511Z,100.00
2023-01-07T05:02:35.749Z,100.00
2023-01-07T05:05:03.165Z,100.00
2023-01-07T05:07:31.111Z,100.00
2023-01-07T05:10:00.185Z,100.00
2023-01-07T05:12:28.810Z,100.00
2023-01-07T05:14:56.208Z,100.00
2023-01-07T05:17:23.805Z,100.00
2023-01-07T05:19:52.127Z,100.00
2023-01-07T05:22:19.512Z,100.00
2023-01-07T05:24:46.832Z,100.00
2023-01-07T05:27:14.264Z,100.00
2023-01-07T05:29:41.754Z,100.00
2023-01-07T05:32:09.182Z,100.00
2023-01-07T05:34:39.041Z,100.00
2023-01-07T05:37:06.471Z,100.00
2023-01-07T05:39:35.453Z,100.00
2023-01-07T05:42:05.561Z,100.00
2023-01-07T05:44:33.107Z,100.00
2023-01-07T05:47:00.475Z,100.00
2023-01-07T05:49:27.784Z,100.00
2023-01-07T05:51:55.198Z,100.00
2023-01-07T05:54:22.958Z,100.00
2023-01-07T05:56:50.358Z,100.00
2023-01-07T05:59:17.770Z,100.00
2023-01-07T06:01:45.100Z,100.00
2023-01-07T06:04:12.958Z,100.00
2023-01-07T06:06:40.693Z,100.00
2023-01-07T06:09:08.048Z,100.00
2023-01-07T06:11:35.416Z,100.00
2023-01-07T06:14:03.698Z,100.00
2023-01-07T06:16:30.969Z,100.00
2023-01-07T06:18:58.446Z,100.00
2023-01-07T06:21:26.272Z,100.00
2023-01-07T06:23:53.601Z,100.00
2023-01-07T06:26:20.915Z,100.00
2023-01-07T06:28:48.763Z,100.00
2023-01-07T06:31:16.566Z,100.00
2023-01-07T06:33:45.173Z,100.00
2023-01-07T06:36:12.912Z,100.00
2023-01-07T06:38:41.684Z,100.00
2023-01-07T06:41:08.978Z,100.00
2023-01-07T06:43:36.679Z,100.00
2023-01-07T06:46:04.304Z,100.00
2023-01-07T06:48:31.754Z,100.00
2023-01-07T06:50:59.274Z,100.00
2023-01-07T06:53:27.033Z,100.00
2023-01-07T06:55:54.409Z,100.00
2023-01-07T06:58:21.952Z,100.00
2023-01-07T07:00:49.845Z,100.00
2023-01-07T07:03:17.494Z,100.00
2023-01-07T07:05:45.523Z,100.00
2023-01-07T07:08:13.377Z,100.00
2023-01-07T07:10:40.915Z,100.00
2023-01-07T07:13:08.713Z,100.00
2023-01-07T07:15:36.119Z,100.00
2023-01-07T07:18:04.290Z,100.00
2023-01-07T07:20:32.844Z,100.00
2023-01-07T07:23:00.651Z,100.00
2023-01-07T07:25:28.084Z,100.00
2023-01-07T07:27:55.886Z,100.00
2023-01-07T07:30:23.184Z,100.00
2023-01-07T07:33:12.659Z,100.00
2023-01-07T07:35:41.172Z,100.00
2023-01-07T07:38:08.637Z,100.00
2023-01-07T07:40:37.274Z,100.00
2023-01-07T07:43:11.628Z,100.00
2023-01-07T07:45:43.327Z,100.00
2023-01-07T07:48:12.311Z,100.00
2023-01-07T07:50:40.168Z,100.00
2023-01-07T07:53:10.352Z,100.00
2023-01-07T07:55:38.364Z,100.00
2023-01-07T07:58:06.165Z,100.00
2023-01-07T08:00:33.670Z,100.00
2023-01-07T08:03:01.270Z,100.00
2023-01-07T08:05:28.773Z,100.00
2023-01-07T08:07:56.746Z,100.00
2023-01-07T08:10:24.796Z,100.00
2023-01-07T08:12:52.653Z,100.00
2023-01-07T08:15:20.142Z,100.00
2023-01-07T08:17:47.475Z,100.00
2023-01-07T08:20:14.938Z,100.00
2023-01-07T08:22:42.460Z,100.00
2023-01-07T08:25:10.053Z,100.00
2023-01-07T08:27:37.361Z,100.00
2023-01-07T08:30:05.431Z,100.00
2023-01-07T08:32:32.859Z,100.00
2023-01-07T08:35:00.272Z,100.00
2023-01-07T08:37:29.320Z,100.00
2023-01-07T08:39:56.709Z,100.00
2023-01-07T08:42:24.047Z,100.00
2023-01-07T08:44:51.485Z,100.00
2023-01-07T08:47:18.823Z,100.00
2023-01-07T08:49:46.693Z,100.00
2023-01-07T08:52:14.506Z,100.00
2023-01-07T08:54:42.311Z,100.00
2023-01-07T08:57:10.123Z,100.00
2023-01-07T08:59:38.835Z,100.00
2023-01-07T09:02:19.119Z,100.00
2023-01-07T09:04:47.475Z,100.00
2023-01-07T09:07:14.783Z,100.00
2023-01-07T09:09:43.119Z,100.00
2023-01-07T09:12:11.168Z,100.00
2023-01-07T09:14:38.778Z,100.00
2023-01-07T09:17:06.602Z,100.00
2023-01-07T09:19:33.999Z,100.00
2023-01-07T09:22:01.747Z,100.00
2023-01-07T09:24:29.070Z,100.00
2023-01-07T09:26:56.800Z,99.99
2023-01-07T09:29:24.208Z,100.00
2023-01-07T09:31:51.542Z,100.00
2023-01-07T09:34:18.881Z,100.00
2023-01-07T09:36:46.335Z,100.00
2023-01-07T09:39:14.301Z,100.00
2023-01-07T09:41:41.639Z,98.95
2023-01-07T09:44:12.133Z,98.03
2023-01-07T09:46:39.736Z,98.92
2023-01-07T09:49:17.538Z,98.18
2023-01-07T09:52:08.702Z,98.68
2023-01-07T09:54:37.378Z,98.15
2023-01-07T09:57:05.842Z,97.00
2023-01-07T09:59:33.765Z,96.53
2023-01-07T10:02:04.561Z,97.13
2023-01-07T10:04:43.389Z,94.10
2023-01-07T10:07:20.037Z,93.13
2023-01-07T10:09:47.475Z,92.74
2023-01-07T10:12:17.966Z,95.21
2023-01-07T10:14:56.444Z,93.68
2023-01-07T10:17:37.199Z,94.03
2023-01-07T10:20:12.417Z,94.29
2023-01-07T10:22:47.698Z,95.31
2023-01-07T10:25:35.956Z,92.52
2023-01-07T10:28:06.675Z,91.27
2023-01-07T10:30:37.310Z,90.24
2023-01-07T10:33:16.763Z,90.65
2023-01-07T10:35:46.392Z,92.29
2023-01-07T10:38:18.220Z,93.98
2023-01-07T10:41:08.911Z,92.54
2023-01-07T10:43:57.177Z,92.78
2023-01-07T10:46:36.691Z,92.81
2023-01-07T10:49:04.072Z,91.84
2023-01-07T10:51:34.496Z,91.94
2023-01-07T10:54:21.120Z,92.64
2023-01-07T10:56:51.929Z,95.82
2023-01-07T10:59:21.068Z,95.24
2023-01-07T11:01:58.854Z,94.75
2023-01-07T11:04:26.772Z,93.47
2023-01-07T11:06:59.739Z,93.41
2023-01-07T11:09:44.099Z,91.37
2023-01-07T11:12:26.600Z,91.17
2023-01-07T11:14:56.875Z,90.54
2023-01-07T11:17:27.999Z,89.47
2023-01-07T11:19:56.574Z,91.78
2023-01-07T11:22:26.864Z,92.74
2023-01-07T11:24:54.948Z,92.37
2023-01-07T11:27:24.563Z,90.83
2023-01-07T11:30:05.122Z,90.23
2023-01-07T11:32:34.675Z,89.38
2023-01-07T11:35:04.157Z,88.74
2023-01-07T11:37:33.435Z,88.15
2023-01-07T11:40:03.239Z,88.99
2023-01-07T11:42:40.451Z,89.17
2023-01-07T11:45:28.636Z,89.37
2023-01-07T11:47:56.175Z,95.74
2023-01-07T11:50:33.313Z,92.70
2023-01-07T11:53:15.918Z,99.37
2023-01-07T11:55:57.141Z,95.21
2023-01-07T11:58:28.585Z,93.47
2023-01-07T12:01:12.559Z,96.51
2023-01-07T12:03:43.217Z,95.59
2023-01-07T12:06:25.845Z,97.74
2023-01-07T12:08:55.417Z,100.00
2023-01-07T12:11:29.326Z,100.00
2023-01-07T12:14:01.247Z,100.00
2023-01-07T12:16:29.023Z,100.00
2023-01-07T12:19:20.092Z,100.00
2023-01-07T12:22:10.541Z,100.00
2023-01-07T12:24:58.158Z,100.00
2023-01-07T12:27:32.343Z,99.08
2023-01-07T12:29:59.800Z,100.00
2023-01-07T12:32:56.955Z,100.00
2023-01-07T12:35:26.831Z,100.00
2023-01-07T12:37:59.207Z,100.00
2023-01-07T12:40:30.810Z,100.00
2023-01-07T12:43:13.451Z,100.00
2023-01-07T12:45:48.600Z,100.00
2023-01-07T12:48:24.249Z,100.00
2023-01-07T12:50:53.254Z,99.84
2023-01-07T12:53:28.118Z,100.00
2023-01-07T12:56:07.764Z,100.00
2023-01-07T12:58:51.684Z,98.30
2023-01-07T13:01:20.288Z,100.00
2023-01-07T13:03:57.363Z,100.00
2023-01-07T13:06:30.682Z,100.00
2023-01-07T13:09:02.569Z,99.14
2023-01-07T13:12:03.005Z,100.00
2023-01-07T13:14:38.090Z,100.00
2023-01-07T13:17:28.575Z,98.24
2023-01-07T13:19:56.385Z,97.38
2023-01-07T13:22:32.901Z,96.91
2023-01-07T13:25:12.466Z,97.15
2023-01-07T13:27:58.630Z,98.72
2023-01-07T13:30:29.264Z,99.39
2023-01-07T13:33:02.616Z,99.67
2023-01-07T13:35:31.014Z,100.00
2023-01-07T13:38:11.749Z,98.89
2023-01-07T13:41:01.200Z,99.76
2023-01-07T13:43:34.782Z,100.00
2023-01-07T13:46:04.627Z,100.00
2023-01-07T13:48:34.749Z,99.47
2023-01-07T13:51:04.523Z,99.93
2023-01-07T13:53:46.311Z,100.00
2023-01-07T13:56:16.665Z,100.00
2023-01-07T13:58:45.071Z,100.00
2023-01-07T14:01:14.606Z,100.00
2023-01-07T14:03:43.585Z,100.00
2023-01-07T14:06:20.757Z,100.00
2023-01-07T14:08:53.203Z,100.00
2023-01-07T14:11:42.091Z,100.00
2023-01-07T14:14:21.996Z,100.00
2023-01-07T14:16:57.133Z,100.00
2023-01-07T14:19:40.610Z,100.00
2023-01-07T14:22:17.517Z,100.00
2023-01-07T14:24:48.419Z,100.00
2023-01-07T14:27:28.150Z,100.00
2023-01-07T14:30:15.383Z,100.00
2023-01-07T14:32:44.085Z,100.00
2023-01-07T14:35:11.354Z,100.00
2023-01-07T14:37:38.853Z,100.00
2023-01-07T14:40:24.775Z,100.00
2023-01-07T14:42:58.733Z,100.00
2023-01-07T14:45:41.417Z,100.00
2023-01-07T14:48:08.788Z,100.00
2023-01-07T14:50:44.004Z,100.00
2023-01-07T14:53:46.563Z,100.00
2023-01-07T14:56:21.511Z,100.00
2023-01-07T14:59:00.765Z,100.00
2023-01-07T15:01:39.136Z,100.00
2023-01-07T15:04:25.740Z,100.00
2023-01-07T15:06:57.194Z,100.00
2023-01-07T15:09:46.132Z,100.00
2023-01-07T15:12:38.703Z,100.00
2023-01-07T15:15:45.546Z,100.00
2023-01-07T15:18:13.131Z,100.00
2023-01-07T15:20:53.622Z,100.00
2023-01-07T15:23:28.133Z,100.00
2023-01-07T15:26:11.374Z,100.00
2023-01-07T15:28:56.002Z,100.00
2023-01-07T15:31:34.936Z,100.00
2023-01-07T15:34:13.627Z,100.00
2023-01-07T15:36:43.607Z,100.00
2023-01-07T15:39:26.056Z,100.00
2023-01-07T15:41:54.316Z,100.00
2023-01-07T15:44:29.092Z,100.00
2023-01-07T15:47:27.592Z,100.00
2023-01-07T15:49:55.042Z,100.00
2023-01-07T15:52:27.919Z,100.00
2023-01-07T15:54:55.654Z,100.00
2023-01-07T15:57:31.943Z,100.00
2023-01-07T15:59:59.553Z,100.00
2023-01-07T16:02:30.365Z,100.00
2023-01-07T16:04:59.820Z,100.00
2023-01-07T16:07:28.978Z,100.00
2023-01-07T16:09:57.805Z,100.00
2023-01-07T16:12:29.207Z,100.00
2023-01-07T16:14:57.449Z,100.00
2023-01-07T16:17:25.867Z,100.00
2023-01-07T16:20:12.626Z,100.00
2023-01-07T16:22:41.263Z,100.00
2023-01-07T16:25:12.353Z,100.00
2023-01-07T16:27:40.310Z,100.00
2023-01-07T16:30:15.261Z,100.00
2023-01-07T16:32:44.117Z,100.00
2023-01-07T16:35:17.166Z,100.00
2023-01-07T16:37:46.219Z,100.00
2023-01-07T16:40:20.399Z,100.00
2023-01-07T16:42:49.511Z,100.00
2023-01-07T16:45:27.527Z,100.00
2023-01-07T16:48:14.500Z,100.00
2023-01-07T16:50:43.092Z,100.00
2023-01-07T16:53:21.767Z,100.00
2023-01-07T16:55:49.996Z,100.00
2023-01-07T16:58:28.978Z,100.00
2023-01-07T17:00:58.208Z,100.00
2023-01-07T17:03:26.441Z,100.00
2023-01-07T17:06:07.296Z,100.00
2023-01-07T17:08:35.594Z,100.00
2023-01-07T17:11:06.013Z,100.00
2023-01-07T17:13:34.892Z,100.00
2023-01-07T17:16:14.821Z,100.00
2023-01-07T17:18:42.494Z,100.00
2023-01-07T17:21:29.928Z,100.00
2023-01-07T17:23:58.121Z,100.00
2023-01-07T17:26:28.441Z,100.00
2023-01-07T17:28:57.339Z,100.00
2023-01-07T17:31:25.340Z,100.00
2023-01-07T17:33:53.818Z,100.00
2023-01-07T17:36:22.877Z,100.00
2023-01-07T17:38:50.488Z,100.00
2023-01-07T17:41:37.929Z,100.00
2023-01-07T17:44:07.612Z,100.00
2023-01-07T17:46:35.631Z,100.00
2023-01-07T17:49:03.128Z,100.00
2023-01-07T17:51:32.882Z,100.00
2023-01-07T17:54:00.528Z,100.00
2023-01-07T17:56:28.092Z,100.00
2023-01-07T17:58:56.305Z,100.00
2023-01-07T18:01:24.989Z,100.00
2023-01-07T18:03:53.318Z,100.00
2023-01-07T18:06:25.234Z,100.00
2023-01-07T18:08:53.468Z,100.00
2023-01-07T18:11:40.856Z,100.00
2023-01-07T18:14:09.879Z,100.00
2023-01-07T18:16:37.680Z,100.00
2023-01-07T18:19:05.709Z,100.00
2023-01-07T18:21:33.666Z,100.00
2023-01-07T18:24:01.997Z,100.00
2023-01-07T18:26:29.734Z,100.00
2023-01-07T18:28:57.707Z,100.00
2023-01-07T18:31:25.921Z,100.00
2023-01-07T18:33:53.747Z,100.00
2023-01-07T18:36:21.662Z,100.00
2023-01-07T18:38:49.862Z,100.00
2023-01-07T18:41:17.974Z,100.00
2023-01-07T18:43:45.591Z,100.00
2023-01-07T18:46:14.698Z,100.00
2023-01-07T18:48:44.995Z,100.00
2023-01-07T18:51:13.234Z,100.00
2023-01-07T18:53:40.978Z,100.00
2023-01-07T18:56:11.938Z,100.00
2023-01-07T18:58:39.860Z,100.00
2023-01-07T19:01:10.239Z,100.00
2023-01-07T19:03:38.816Z,100.00
2023-01-07T19:06:09.546Z,100.00
2023-01-07T19:08:38.560Z,100.00
2023-01-07T19:11:10.080Z,100.00
2023-01-07T19:13:37.708Z,100.00
2023-01-07T19:16:06.261Z,100.00
2023-01-07T19:18:34.013Z,100.00
2023-01-07T19:21:05.093Z,100.00
2023-01-07T19:23:33.157Z,100.00
2023-01-07T19:26:02.611Z,100.00
2023-01-07T19:28:31.797Z,100.00
2023-01-07T19:31:11.465Z,100.00
2023-01-07T19:33:39.929Z,100.00
2023-01-07T19:36:12.427Z,100.00
2023-01-07T19:38:42.680Z,100.00
2023-01-07T19:41:18.126Z,100.00
2023-01-07T19:43:50.249Z,100.00
2023-01-07T19:46:18.211Z,100.00
2023-01-07T19:48:49.427Z,100.00
2023-01-07T19:51:17.000Z,100.00
2023-01-07T19:53:44.864Z,100.00
2023-01-07T19:56:15.547Z,100.00
2023-01-07T19:58:43.016Z,100.00
2023-01-07T20:01:12.278Z,100.00
2023-01-07T20:03:40.219Z,100.00
2023-01-07T20:06:09.979Z,100.00
2023-01-07T20:08:38.033Z,100.00
2023-01-07T20:11:06.207Z,100.00
2023-01-07T20:13:34.388Z,100.00
2023-01-07T20:16:10.254Z,100.00
2023-01-07T20:18:41.575Z,100.00
2023-01-07T20:21:10.508Z,100.00
2023-01-07T20:23:39.377Z,100.00
2023-01-07T20:26:09.521Z,100.00
2023-01-07T20:28:37.485Z,100.00
2023-01-07T20:31:06.075Z,100.00
2023-01-07T20:33:34.367Z,100.00
2023-01-07T20:36:03.245Z,100.00
2023-01-07T20:38:31.480Z,100.00
2023-01-07T20:40:59.449Z,100.00
2023-01-07T20:43:27.580Z,100.00
2023-01-07T20:45:59.568Z,100.00
2023-01-07T20:48:27.568Z,100.00
2023-01-07T20:50:55.449Z,100.00
2023-01-07T20:53:23.580Z,100.00
2023-01-07T20:56:00.783Z,100.00
2023-01-07T20:58:30.423Z,100.00
2023-01-07T21:00:58.929Z,100.00
2023-01-07T21:03:30.596Z,100.00
2023-01-07T21:05:59.052Z,100.00
2023-01-07T21:08:26.794Z,100.00
2023-01-07T21:10:54.478Z,100.00
2023-01-07T21:13:23.594Z,100.00
2023-01-07T21:15:51.851Z,100.00
2023-01-07T21:18:19.324Z,100.00
2023-01-07T21:20:48.093Z,100.00
2023-01-07T21:23:15.445Z,100.00
2023-01-07T21:25:47.074Z,100.00
2023-01-07T21:28:15.084Z,100.00
2023-01-07T21:30:42.401Z,100.00
2023-01-07T21:33:09.725Z,100.00
2023-01-07T21:35:40.719Z,100.00
2023-01-07T21:38:08.486Z,100.00
2023-01-07T21:40:37.511Z,100.00
2023-01-07T21:43:05.037Z,100.00
2023-01-07T21:45:32.722Z,100.00
2023-01-07T21:48:00.099Z,100.00
2023-01-07T21:50:30.332Z,100.00
2023-01-07T21:53:00.298Z,100.00
2023-01-07T21:55:27.917Z,100.00
2023-01-07T21:57:55.389Z,100.00
2023-01-07T22:00:23.252Z,100.00
2023-01-07T22:02:50.710Z,100.00
2023-01-07T22:05:18.412Z,100.00
2023-01-07T22:07:46.276Z,100.00
2023-01-07T22:10:13.732Z,100.00
2023-01-07T22:12:41.517Z,100.00
2023-01-07T22:15:09.516Z,100.00
2023-01-07T22:17:37.384Z,100.00
2023-01-07T22:20:05.334Z,100.00
2023-01-07T22:22:32.733Z,100.00
2023-01-07T22:25:00.196Z,100.00
2023-01-07T22:27:28.068Z,100.00
2023-01-07T22:29:56.256Z,100.00
2023-01-07T22:32:24.007Z,100.00
2023-01-07T22:34:51.737Z,100.00
2023-01-07T22:37:20.926Z,100.00
2023-01-07T22:39:53.706Z,100.00
2023-01-07T22:42:22.863Z,100.00
2023-01-07T22:44:53.026Z,100.00
2023-01-07T22:47:27.326Z,100.00
2023-01-07T22:49:55.651Z,100.00
2023-01-07T22:52:23.539Z,100.00
2023-01-07T22:54:51.955Z,100.00
2023-01-07T22:57:19.581Z,100.00
2023-01-07T22:59:47.481Z,100.00
2023-01-07T23:02:15.222Z,100.00
2023-01-07T23:04:42.581Z,100.00
2023-01-07T23:07:10.784Z,100.00
2023-01-07T23:09:38.768Z,100.00
2023-01-07T23:12:06.243Z,100.00
2023-01-07T23:14:33.629Z,100.00
2023-01-07T23:17:01.673Z,100.00
2023-01-07T23:19:31.942Z,100.00
2023-01-07T23:21:59.657Z,100.00
2023-01-07T23:24:27.149Z,100.00
2023-01-07T23:26:54.987Z,100.00
2023-01-07T23:29:22.790Z,100.00
2023-01-07T23:31:50.745Z,100.00
2023-01-07T23:34:19.719Z,100.00
2023-01-07T23:36:47.190Z,100.00
2023-01-07T23:39:15.135Z,100.00
2023-01-07T23:41:42.496Z,100.00
2023-01-07T23:44:11.047Z,100.00
2023-01-07T23:46:38.471Z,100.00
2023-01-07T23:49:06.212Z,100.00
2023-01-07T23:51:33.986Z,100.00
2023-01-07T23:54:01.359Z,100.00
2023-01-07T23:56:29.389Z,100.00
2023-01-07T23:58:56.909Z,100.00
